Time;durP1;ratioP1;P1;durP2;ratioP2;P2;SDS_P1;SDS_P2;PMS_P1;PMS_P2;Temp;Humidity;BMP_temperature;BMP_pressure;BME280_temperature;BME280_humidity;BME280_pressure;Samples;Min_cycle;Max_cycle;Signal;HPM_P1;HPM_P2
2021/12/17 00:01:14;;;;;;;21.02;10.30;;;;;;;4.72;82.03;100000.37;1775500;80;25796;-60
2021/12/17 00:03:48;;;;;;;12.70;6.70;;;;;;;4.73;82.39;99997.12;1775465;80;25673;-60
2021/12/17 00:06:29;;;;;;;13.18;6.92;;;;;;;4.69;82.08;99991.90;1775332;80;25873;-60
2021/12/17 00:08:49;;;;;;;12.45;5.37;;;;;;;4.64;82.02;100011.08;1775309;80;25700;-60
2021/12/17 00:11:17;;;;;;;16.95;8.48;;;;;;;4.63;81.83;100014.86;1775394;80;25400;-60
2021/12/17 00:13:46;;;;;;;12.30;5.58;;;;;;;4.62;82.02;100007.80;1775276;80;25738;-60
2021/12/17 00:16:22;;;;;;;17.30;9.60;;;;;;;4.63;81.91;100008.08;1775345;80;25464;-60
2021/12/17 00:19:52;;;;;;;15.68;8.63;;;;;;;4.66;81.71;100010.03;1775407;80;26807;-60
2021/12/17 00:48:24;;;;;;;16.73;5.40;;;;;;;4.68;82.40;99994.30;1784041;80;25565;-61
2021/12/17 00:53:30;;;;;;;20.50;12.13;;;;;;;4.67;81.87;99992.14;1739877;80;25578;-61
2021/12/17 00:55:57;;;;;;;12.58;6.85;;;;;;;4.67;82.16;100007.59;1784136;80;25656;-61
2021/12/17 00:58:24;;;;;;;16.67;8.85;;;;;;;4.66;82.23;100000.53;1784290;80;27929;-60
2021/12/17 01:00:50;;;;;;;11.50;5.75;;;;;;;4.67;82.46;100007.08;1783966;80;25470;-60
2021/12/17 01:03:16;;;;;;;12.13;6.45;;;;;;;4.62;82.39;100003.72;1784080;80;25632;-60
2021/12/17 01:05:44;;;;;;;12.95;6.28;;;;;;;4.60;82.35;100005.01;1783973;80;25817;-60
2021/12/17 01:08:12;;;;;;;13.22;6.00;;;;;;;4.58;82.35;100004.44;1784000;80;25593;-60
2021/12/17 01:10:49;;;;;;;14.55;6.83;;;;;;;4.61;82.34;100008.84;1784061;80;27424;-60
2021/12/17 01:13:16;;;;;;;14.60;8.38;;;;;;;4.64;82.27;100000.77;1783167;80;25481;-60
2021/12/17 01:15:44;;;;;;;15.28;6.20;;;;;;;4.64;81.97;100002.92;1784538;80;25594;-60
2021/12/17 01:18:16;;;;;;;11.73;5.60;;;;;;;4.71;82.02;100015.02;1784254;80;25827;-60
2021/12/17 01:37:22;;;;;;;12.63;6.80;;;;;;;4.54;81.97;99987.80;1783929;80;25593;-60
2021/12/17 01:40:34;;;;;;;11.65;6.60;;;;;;;4.55;82.19;99984.56;1783585;80;25811;-60
2021/12/17 01:44:29;;;;;;;13.28;6.67;;;;;;;4.62;82.16;99974.38;1784055;80;25402;-59
2021/12/17 01:46:55;;;;;;;13.20;5.85;;;;;;;4.64;82.13;99973.61;1784200;80;25663;-60
2021/12/17 02:00:33;;;;;;;12.25;5.00;;;;;;;4.63;82.27;99987.71;1784381;80;25601;-60
2021/12/17 02:03:00;;;;;;;9.60;4.40;;;;;;;4.61;82.51;99987.12;1784140;80;27026;-59
2021/12/17 02:05:27;;;;;;;16.87;5.70;;;;;;;4.60;82.43;99994.98;1784299;80;25724;-60
2021/12/17 02:07:56;;;;;;;14.13;6.30;;;;;;;4.59;82.57;99989.27;1784040;80;25630;-59
2021/12/17 02:19:26;;;;;;;14.98;5.35;;;;;;;4.61;82.55;99991.19;1784133;80;25624;-60
2021/12/17 02:32:08;;;;;;;10.13;3.85;;;;;;;4.61;82.37;99974.09;1784399;80;25698;-61
2021/12/17 02:37:27;;;;;;;7.95;3.83;;;;;;;4.52;82.41;99970.94;1784234;80;25671;-60
2021/12/17 02:40:08;;;;;;;13.32;3.90;;;;;;;4.50;82.40;99975.25;1784113;80;25400;-60
2021/12/17 02:48:14;;;;;;;12.13;3.67;;;;;;;4.52;81.93;99981.25;1718234;83;25474;-60
2021/12/17 02:50:54;;;;;;;11.45;3.62;;;;;;;4.52;81.93;99975.81;1718211;83;25715;-60
2021/12/17 02:53:23;;;;;;;11.43;3.83;;;;;;;4.53;81.97;99984.80;1718443;83;25718;-60
2021/12/17 02:56:00;;;;;;;8.83;4.17;;;;;;;4.51;82.09;99981.48;1718788;83;28081;-60
2021/12/17 02:58:31;;;;;;;10.58;3.98;;;;;;;4.49;81.95;99974.94;1718245;83;25626;-60
2021/12/17 03:01:02;;;;;;;8.63;3.98;;;;;;;4.46;82.08;99980.05;1718306;83;25718;-60
2021/12/17 03:03:33;;;;;;;9.65;3.72;;;;;;;4.43;82.06;99977.26;1718694;83;25916;-59
2021/12/17 03:06:01;;;;;;;9.10;3.25;;;;;;;4.38;81.87;99975.81;1718771;83;25779;-60
2021/12/17 03:08:29;;;;;;;8.95;3.35;;;;;;;4.39;81.62;99972.02;1718629;83;28081;-60
2021/12/17 03:10:57;;;;;;;10.32;2.90;;;;;;;4.37;81.61;99969.55;1718422;83;25646;-60
2021/12/17 03:13:25;;;;;;;9.23;2.35;;;;;;;4.41;81.49;99967.72;1718493;83;25715;-60
2021/12/17 03:23:45;;;;;;;11.97;3.15;;;;;;;4.27;80.93;99948.44;1784095;80;25727;-60
2021/12/17 03:26:21;;;;;;;8.00;3.08;;;;;;;4.21;81.01;99952.14;1784217;80;25605;-60
2021/12/17 03:28:53;;;;;;;8.10;2.87;;;;;;;4.16;81.25;99949.30;1784511;80;26408;-60
2021/12/17 03:31:23;;;;;;;12.47;4.08;;;;;;;4.09;81.34;99937.21;1784521;80;25573;-59
2021/12/17 03:33:54;;;;;;;9.63;5.40;;;;;;;4.04;81.40;99937.12;1784459;80;27416;-60
2021/12/17 03:36:21;;;;;;;8.88;3.55;;;;;;;4.04;81.52;99939.00;1774454;80;25919;-60
2021/12/17 03:38:50;;;;;;;11.80;3.80;;;;;;;4.06;81.60;99945.02;1777335;80;25574;-60
2021/12/17 03:41:21;;;;;;;6.62;4.10;;;;;;;4.06;81.67;99949.89;1775559;80;25709;-60
2021/12/17 03:43:48;;;;;;;9.45;3.62;;;;;;;4.06;81.80;99939.05;1775420;80;25471;-60
2021/12/17 03:46:16;;;;;;;11.33;3.27;;;;;;;4.08;81.87;99935.58;1775278;80;27395;-60
2021/12/17 03:48:43;;;;;;;10.75;3.40;;;;;;;4.10;81.85;99940.76;1775601;80;25809;-61
2021/12/17 03:51:16;;;;;;;11.35;3.52;;;;;;;4.08;81.98;99936.09;1775624;80;25600;-60
2021/12/17 03:53:49;;;;;;;7.12;2.50;;;;;;;4.07;82.07;99936.65;1775397;80;25395;-61
2021/12/17 03:56:17;;;;;;;9.70;4.08;;;;;;;4.03;82.15;99939.52;1775314;80;25641;-60
2021/12/17 03:58:44;;;;;;;10.78;3.70;;;;;;;4.03;82.25;99938.16;1775226;80;27383;-60
2021/12/17 04:01:10;;;;;;;9.50;3.52;;;;;;;4.02;82.06;99936.53;1775484;80;25593;-60
2021/12/17 04:03:36;;;;;;;14.85;3.60;;;;;;;4.04;81.86;99926.27;1775328;80;25442;-60
2021/12/17 04:06:04;;;;;;;11.43;3.30;;;;;;;4.07;81.79;99926.31;1775194;80;25728;-59
2021/12/17 04:08:31;;;;;;;13.75;3.75;;;;;;;4.08;81.73;99924.72;1775419;80;25785;-59
2021/12/17 04:11:05;;;;;;;8.53;3.72;;;;;;;4.05;81.58;99929.27;1775243;80;27632;-59
2021/12/17 04:13:37;;;;;;;8.33;3.67;;;;;;;4.07;81.73;99922.25;1775197;80;25431;-59
2021/12/17 04:16:08;;;;;;;11.35;4.22;;;;;;;4.05;81.66;99914.34;1775473;80;25725;-59
2021/12/17 04:18:37;;;;;;;9.75;4.12;;;;;;;4.01;81.48;99911.28;1775360;80;25483;-59
2021/12/17 04:21:13;;;;;;;11.63;3.83;;;;;;;3.97;81.65;99909.31;1775591;80;25581;-59
2021/12/17 04:23:33;;;;;;;10.53;3.27;;;;;;;3.92;81.90;99906.48;1775571;80;26686;-59
2021/12/17 04:26:00;;;;;;;26.80;9.03;;;;;;;3.89;82.05;99901.01;1775115;80;25414;-59
2021/12/17 04:28:27;;;;;;;20.43;5.85;;;;;;;3.85;82.08;99904.72;1775297;80;25420;-60
2021/12/17 04:30:54;;;;;;;20.00;5.80;;;;;;;3.83;82.05;99906.83;1775280;80;25806;-60
2021/12/17 04:33:21;;;;;;;13.45;4.55;;;;;;;3.83;82.04;99893.27;1775467;80;25630;-60
2021/12/17 04:35:47;;;;;;;16.70;4.10;;;;;;;3.83;81.89;99897.89;1775951;80;27427;-61
2021/12/17 04:38:15;;;;;;;13.38;3.20;;;;;;;3.80;81.92;99901.08;1783876;80;25557;-60
2021/12/17 04:40:43;;;;;;;16.82;4.95;;;;;;;3.79;81.84;99900.23;1783617;80;25664;-60
2021/12/17 04:43:17;;;;;;;21.57;5.35;;;;;;;3.77;81.92;99906.42;1783522;80;25459;-60
2021/12/17 04:45:48;;;;;;;10.82;3.37;;;;;;;3.73;82.06;99903.38;1783534;80;25617;-60
2021/12/17 04:59:11;;;;;;;20.68;5.20;;;;;;;3.69;82.58;99908.99;1783558;80;25371;-60
2021/12/17 05:01:37;;;;;;;35.30;10.45;;;;;;;3.77;82.53;99899.64;1783762;80;26805;-60
2021/12/17 05:04:05;;;;;;;31.52;9.70;;;;;;;3.82;82.45;99905.19;1783845;80;25581;-60
2021/12/17 05:06:32;;;;;;;30.43;10.25;;;;;;;3.85;82.29;99903.36;1783989;80;25665;-61
2021/12/17 05:09:07;;;;;;;37.05;11.33;;;;;;;3.88;82.42;99905.59;1783443;80;25804;-60
2021/12/17 05:19:50;;;;;;;20.52;6.72;;;;;;;3.91;81.82;99899.41;1783552;80;25723;-60
2021/12/17 05:22:15;;;;;;;19.80;7.05;;;;;;;3.91;81.73;99900.77;1783473;80;25483;-60
2021/12/17 05:24:43;;;;;;;29.60;8.93;;;;;;;3.92;81.53;99906.48;1783669;80;25676;-60
2021/12/17 05:27:11;;;;;;;13.53;4.87;;;;;;;3.95;81.48;99900.05;1783515;80;27249;-60
2021/12/17 05:29:38;;;;;;;26.75;9.13;;;;;;;3.95;80.89;99897.34;1783739;80;25714;-59
2021/12/17 05:32:06;;;;;;;22.42;6.50;;;;;;;3.96;80.67;99900.34;1783518;80;25579;-60
2021/12/17 05:34:33;;;;;;;11.55;4.20;;;;;;;4.00;80.45;99893.36;1783879;80;25730;-60
2021/12/17 05:36:59;;;;;;;6.83;2.20;;;;;;;4.03;80.23;99897.48;1779578;80;25671;-60
2021/12/17 05:39:26;;;;;;;23.30;8.48;;;;;;;4.00;79.85;99902.05;1775782;80;27832;-60
2021/12/17 05:41:52;;;;;;;14.65;4.87;;;;;;;3.97;79.37;99901.98;1775117;80;25586;-60
2021/12/17 05:44:20;;;;;;;13.75;5.05;;;;;;;3.96;79.65;99888.66;1775531;80;25585;-59
2021/12/17 05:46:49;;;;;;;19.67;7.97;;;;;;;3.92;79.74;99899.70;1775224;80;25730;-59
2021/12/17 05:49:20;;;;;;;27.70;8.33;;;;;;;3.89;79.70;99899.65;1775605;80;25704;-59
2021/12/17 05:51:47;;;;;;;26.02;8.08;;;;;;;3.92;79.32;99914.09;1775709;80;27991;-61
2021/12/17 05:54:15;;;;;;;10.40;3.95;;;;;;;3.96;79.51;99916.61;1775387;80;25584;-62
2021/12/17 05:56:41;;;;;;;7.65;3.15;;;;;;;3.97;79.29;99908.76;1775946;80;25464;-61
2021/12/17 05:59:08;;;;;;;16.05;5.72;;;;;;;3.97;79.20;99914.19;1775182;80;25678;-61
2021/12/17 06:01:36;;;;;;;9.78;4.17;;;;;;;3.99;79.13;99922.91;1775333;80;25454;-61
2021/12/17 06:04:04;;;;;;;14.23;4.62;;;;;;;3.99;79.29;99924.80;1775135;80;27480;-62
2021/12/17 06:06:38;;;;;;;14.00;4.92;;;;;;;4.00;79.48;99925.91;1775093;80;25625;-62
2021/12/17 06:09:08;;;;;;;8.98;3.67;;;;;;;3.96;79.14;99926.11;1775275;80;25737;-61
2021/12/17 06:11:36;;;;;;;14.45;4.70;;;;;;;3.91;78.72;99921.11;1775256;80;25691;-61
2021/12/17 06:14:03;;;;;;;9.58;4.62;;;;;;;3.89;78.71;99923.51;1775241;80;25483;-61
2021/12/17 06:16:33;;;;;;;14.03;5.42;;;;;;;3.87;78.42;99918.88;1775303;80;27650;-61
2021/12/17 06:18:58;;;;;;;8.13;4.28;;;;;;;3.89;78.64;99934.36;1775217;80;25622;-61
2021/12/17 06:21:24;;;;;;;12.90;4.50;;;;;;;3.88;77.88;99933.23;1775165;80;25463;-61
2021/12/17 06:23:50;;;;;;;9.60;4.00;;;;;;;3.88;77.85;99954.41;1775134;80;25839;-61
2021/12/17 06:26:17;;;;;;;10.58;4.05;;;;;;;3.88;77.36;99957.64;1775221;80;25407;-61
2021/12/17 06:28:43;;;;;;;10.10;3.77;;;;;;;3.86;77.65;99961.14;1775172;80;27533;-61
2021/12/17 06:31:10;;;;;;;4.03;2.12;;;;;;;3.81;77.22;99965.92;1775103;80;25649;-61
2021/12/17 06:33:36;;;;;;;9.70;3.67;;;;;;;3.74;76.16;99959.77;1775163;80;25712;-61
2021/12/17 06:36:03;;;;;;;12.80;4.97;;;;;;;3.74;77.22;99972.80;1775115;80;27848;-62
2021/12/17 06:38:29;;;;;;;7.78;3.20;;;;;;;3.76;77.75;99980.70;1782955;80;25466;-62
2021/12/17 06:40:58;;;;;;;11.75;4.17;;;;;;;3.76;76.99;99979.34;1783793;80;27488;-61
2021/12/17 06:43:30;;;;;;;9.60;4.78;;;;;;;3.79;76.85;99969.39;1783539;80;25463;-62
2021/12/17 06:45:58;;;;;;;9.20;3.05;;;;;;;3.84;77.50;99959.19;1783305;80;25451;-61
2021/12/17 06:48:25;;;;;;;8.50;3.77;;;;;;;3.82;76.49;99954.52;1783294;80;25642;-61
2021/12/17 06:59:10;;;;;;;14.85;5.00;;;;;;;3.78;77.56;99970.45;1783533;80;25490;-61
2021/12/17 07:11:50;;;;;;;11.88;6.20;;;;;;;3.87;77.98;99958.72;1783539;80;25728;-61
2021/12/17 07:17:13;;;;;;;10.28;4.50;;;;;;;3.92;78.35;99940.37;1783598;80;25693;-62
2021/12/17 07:24:49;;;;;;;7.47;3.47;;;;;;;3.87;78.25;99937.02;1783669;80;25723;-61
2021/12/17 07:32:31;;;;;;;11.35;4.72;;;;;;;3.86;78.80;99947.03;1743366;80;25870;-61
2021/12/17 07:35:12;;;;;;;13.85;5.58;;;;;;;3.87;78.44;99943.28;1783013;80;25461;-62
2021/12/17 07:39:42;;;;;;;35.92;14.63;;;;;;;3.97;78.53;99945.38;1775719;80;25412;-61
2021/12/17 07:42:10;;;;;;;129.63;34.48;;;;;;;3.99;78.54;99943.78;1775272;80;25592;-62
2021/12/17 07:44:37;;;;;;;48.92;14.47;;;;;;;4.02;78.76;99941.95;1775396;80;27296;-62
2021/12/17 07:47:04;;;;;;;101.12;25.70;;;;;;;4.05;78.47;99943.35;1775351;80;25704;-61
2021/12/17 07:49:31;;;;;;;87.95;25.08;;;;;;;3.99;78.56;99947.33;1775739;80;25604;-62
2021/12/17 07:51:58;;;;;;;119.93;33.33;;;;;;;4.00;78.88;99954.95;1775487;80;25835;-62
2021/12/17 07:54:25;;;;;;;118.00;32.65;;;;;;;3.99;78.83;99958.18;1775614;80;25665;-62
2021/12/17 07:56:52;;;;;;;136.80;37.38;;;;;;;3.98;78.95;99960.61;1775594;80;27420;-62
2021/12/17 07:59:19;;;;;;;126.00;34.92;;;;;;;3.98;79.09;99965.20;1775401;80;25654;-62
2021/12/17 08:01:46;;;;;;;65.70;21.10;;;;;;;3.97;79.22;99963.00;1775424;80;25652;-62
2021/12/17 08:04:13;;;;;;;54.75;19.02;;;;;;;3.94;79.20;99960.77;1775360;80;25836;-62
2021/12/17 08:06:40;;;;;;;51.28;18.15;;;;;;;3.96;79.28;99959.17;1775569;80;25458;-62
2021/12/17 08:09:08;;;;;;;63.63;24.90;;;;;;;3.99;79.27;99963.61;1775531;80;27411;-62
2021/12/17 08:11:39;;;;;;;62.40;28.07;;;;;;;4.00;79.03;99957.11;1775353;80;25649;-62
2021/12/17 08:14:07;;;;;;;46.70;20.12;;;;;;;4.05;78.86;99959.11;1775370;80;25604;-61
2021/12/17 08:24:57;;;;;;;23.40;9.83;;;;;;;4.16;78.66;99952.54;1775161;80;25475;-61
2021/12/17 08:27:27;;;;;;;27.93;13.35;;;;;;;4.15;78.70;99959.88;1775377;80;25449;-62
2021/12/17 08:29:56;;;;;;;21.33;8.98;;;;;;;4.13;78.82;99960.11;1775374;80;25401;-62
2021/12/17 08:32:21;;;;;;;15.13;6.45;;;;;;;4.14;78.87;99963.11;1775441;80;25632;-62
2021/12/17 08:34:49;;;;;;;19.32;7.78;;;;;;;4.12;78.75;99957.64;1775310;80;27469;-61
2021/12/17 08:37:16;;;;;;;25.30;9.38;;;;;;;4.13;79.02;99961.47;1776477;80;25467;-61
2021/12/17 08:39:43;;;;;;;21.48;9.08;;;;;;;4.17;78.43;99965.06;1784262;80;25644;-63
2021/12/17 08:42:10;;;;;;;13.38;5.25;;;;;;;4.24;78.51;99968.47;1784042;80;25981;-62
2021/12/17 08:44:37;;;;;;;21.50;10.93;;;;;;;4.30;78.04;99966.67;1784322;80;25616;-63
2021/12/17 08:47:05;;;;;;;17.77;7.12;;;;;;;4.37;77.83;99966.00;1784517;80;27947;-63
2021/12/17 08:49:32;;;;;;;19.52;7.58;;;;;;;4.44;77.88;99964.52;1784076;80;25446;-62
2021/12/17 08:51:58;;;;;;;13.58;4.58;;;;;;;4.42;77.09;99962.56;1784370;80;25663;-62
2021/12/17 08:54:25;;;;;;;29.35;9.80;;;;;;;4.43;76.71;99974.55;1784360;80;26163;-63
2021/12/17 08:56:51;;;;;;;35.85;11.95;;;;;;;4.43;76.91;99975.09;1784106;80;25452;-63
2021/12/17 08:59:18;;;;;;;43.13;12.28;;;;;;;4.43;77.19;99979.17;1784000;80;27452;-62
2021/12/17 09:01:46;;;;;;;35.65;10.32;;;;;;;4.42;77.61;99982.41;1784200;80;25621;-61
2021/12/17 09:04:14;;;;;;;20.35;8.10;;;;;;;4.41;75.95;99979.92;1784353;80;25709;-62
2021/12/17 09:06:40;;;;;;;21.73;7.40;;;;;;;4.41;76.93;99991.63;1784196;80;25732;-61
2021/12/17 09:09:07;;;;;;;18.37;6.80;;;;;;;4.47;76.88;99993.37;1784248;80;25454;-61
2021/12/17 09:11:34;;;;;;;30.72;7.40;;;;;;;4.53;76.51;99998.38;1784469;80;27445;-61
2021/12/17 09:14:03;;;;;;;21.42;6.42;;;;;;;4.57;75.96;99984.59;1784199;80;25399;-62
2021/12/17 09:16:30;;;;;;;13.08;5.00;;;;;;;4.57;75.87;99981.05;1784479;80;25739;-63
2021/12/17 09:18:58;;;;;;;9.30;3.92;;;;;;;4.57;76.16;99991.39;1784334;80;25709;-61
2021/12/17 09:21:24;;;;;;;17.07;6.55;;;;;;;4.56;75.21;99987.03;1783987;80;25747;-63
2021/12/17 09:23:51;;;;;;;10.75;4.35;;;;;;;4.58;75.88;99982.72;1784194;80;29564;-62
2021/12/17 09:26:19;;;;;;;9.50;4.08;;;;;;;4.58;76.35;99978.65;1784275;80;25658;-62
2021/12/17 09:28:47;;;;;;;10.55;3.90;;;;;;;4.59;75.91;99981.64;1784395;80;25688;-63
2021/12/17 09:31:14;;;;;;;10.60;4.03;;;;;;;4.63;75.81;99974.14;1784098;80;25800;-63
2021/12/17 09:33:44;;;;;;;25.25;8.83;;;;;;;4.70;75.61;99969.09;1765528;80;25561;-62
2021/12/17 09:36:12;;;;;;;12.55;4.97;;;;;;;4.74;76.03;99969.73;1733169;82;27379;-65
2021/12/17 09:38:39;;;;;;;13.43;6.83;;;;;;;4.81;76.25;99976.91;1714597;82;25745;-63
2021/12/17 09:41:06;;;;;;;18.35;6.85;;;;;;;4.86;76.43;99971.03;1685746;85;25743;-62
2021/12/17 09:43:36;;;;;;;14.38;5.58;;;;;;;4.84;75.67;99975.88;1685047;85;25761;-62
2021/12/17 09:46:07;;;;;;;12.07;4.50;;;;;;;4.83;75.64;99974.23;1686591;85;25612;-62
2021/12/17 09:48:35;;;;;;;12.03;4.03;;;;;;;4.83;75.19;99970.16;1686827;85;27388;-61
2021/12/17 09:51:06;;;;;;;15.20;4.83;;;;;;;4.81;74.32;99976.91;1686194;85;25659;-62
2021/12/17 09:53:34;;;;;;;7.42;2.75;;;;;;;4.77;74.49;99962.98;1686872;85;25691;-61
2021/12/17 09:56:01;;;;;;;14.10;6.22;;;;;;;4.79;73.23;99954.06;1686682;85;25711;-61
2021/12/17 09:58:29;;;;;;;11.33;4.75;;;;;;;4.80;74.02;99958.42;1686965;83;26471;-61
2021/12/17 10:00:56;;;;;;;9.58;4.15;;;;;;;4.88;73.71;99951.78;1686472;85;27479;-64
2021/12/17 10:03:22;;;;;;;9.93;3.47;;;;;;;4.92;73.70;99953.48;1686213;85;25704;-63
2021/12/17 10:05:49;;;;;;;13.60;4.67;;;;;;;4.98;73.94;99947.87;1686703;85;25675;-64
2021/12/17 10:08:22;;;;;;;9.85;4.35;;;;;;;5.03;73.54;99945.79;1686610;85;25766;-63
2021/12/17 10:11:01;;;;;;;7.05;3.25;;;;;;;5.03;72.43;99943.08;1686730;85;25671;-62
2021/12/17 10:13:34;;;;;;;11.95;5.75;;;;;;;5.02;73.10;99940.08;1686393;85;27405;-62
2021/12/17 10:16:08;;;;;;;16.62;6.17;;;;;;;5.00;73.45;99936.77;1686655;83;25631;-64
2021/12/17 10:18:39;;;;;;;17.27;6.67;;;;;;;5.03;73.49;99940.36;1686544;85;25747;-63
2021/12/17 10:21:08;;;;;;;;;;;;;;;5.04;73.37;99938.47;1689162;85;25796;-63
2021/12/17 10:23:36;;;;;;;21.82;9.18;;;;;;;4.99;72.98;99930.53;1686609;83;25739;-63
2021/12/17 10:26:04;;;;;;;11.85;3.75;;;;;;;5.06;74.29;99941.22;1686564;85;27069;-62
2021/12/17 10:28:31;;;;;;;10.68;4.60;;;;;;;5.05;72.55;99941.47;1686621;85;25773;-62
2021/12/17 10:30:58;;;;;;;14.98;7.10;;;;;;;5.05;73.15;99943.66;1686655;85;25410;-62
2021/12/17 10:33:28;;;;;;;15.50;4.90;;;;;;;5.07;72.95;99946.94;1686682;85;25692;-62
2021/12/17 10:36:00;;;;;;;11.12;3.80;;;;;;;5.09;72.76;99946.17;1686653;85;25434;-63
2021/12/17 10:38:26;;;;;;;9.63;4.20;;;;;;;5.02;71.84;99938.19;1700118;83;26058;-64
2021/12/17 10:43:38;;;;;;;13.45;4.95;;;;;;;4.95;71.80;99938.86;1727509;83;25500;-62
2021/12/17 10:46:32;;;;;;;18.73;5.67;;;;;;;4.90;71.99;99934.71;1727059;83;25649;-63
2021/12/17 10:54:10;;;;;;;20.82;6.33;;;;;;;5.07;72.10;99923.04;1727592;83;25762;-63
2021/12/17 10:56:55;;;;;;;15.75;6.50;;;;;;;5.07;71.47;99927.12;1727659;83;25462;-63
2021/12/17 10:59:30;;;;;;;17.57;6.15;;;;;;;5.09;71.17;99929.03;1727198;83;25712;-62
2021/12/17 11:02:10;;;;;;;23.75;8.08;;;;;;;5.08;70.68;99930.11;1706773;83;25770;-63
2021/12/17 11:04:43;;;;;;;21.33;7.72;;;;;;;4.97;71.72;99931.30;1726702;82;26075;-64
2021/12/17 11:07:18;;;;;;;40.17;12.82;;;;;;;4.97;72.09;99926.39;1727408;83;25665;-62
2021/12/17 11:09:50;;;;;;;43.40;12.47;;;;;;;4.95;72.03;99932.06;1727438;83;25593;-62
2021/12/17 11:12:38;;;;;;;51.08;15.15;;;;;;;4.97;72.32;99933.18;1727737;83;25702;-62
2021/12/17 11:15:22;;;;;;;25.57;7.60;;;;;;;4.98;72.73;99930.22;1727353;83;25423;-62
2021/12/17 11:17:56;;;;;;;7.22;3.25;;;;;;;5.05;72.86;99934.16;1726881;83;28083;-62
2021/12/17 11:20:31;;;;;;;39.13;12.58;;;;;;;5.02;71.76;99928.69;1727407;83;25412;-62
2021/12/17 11:23:08;;;;;;;18.48;7.00;;;;;;;5.06;71.68;99931.72;1727493;83;25629;-62
2021/12/17 11:25:37;;;;;;;31.27;10.32;;;;;;;5.00;71.76;99928.09;1727108;83;25728;-62
2021/12/17 11:28:07;;;;;;;20.23;8.03;;;;;;;5.06;72.49;99932.27;1727599;83;25479;-61
2021/12/17 11:30:38;;;;;;;22.70;9.25;;;;;;;5.05;71.86;99940.11;1727685;83;27328;-61
2021/12/17 11:33:05;;;;;;;17.15;7.58;;;;;;;5.05;72.29;99938.75;1727766;83;25729;-61
2021/12/17 11:35:39;;;;;;;32.80;12.13;;;;;;;5.06;72.76;99943.14;1727261;83;25733;-62
2021/12/17 11:38:35;;;;;;;29.10;10.35;;;;;;;5.03;71.85;99936.28;1726626;83;25911;-63
2021/12/17 11:41:16;;;;;;;25.90;9.08;;;;;;;4.98;72.05;99934.84;1713981;83;25993;-62
2021/12/17 11:44:00;;;;;;;23.50;7.70;;;;;;;4.98;72.76;99932.13;1713593;83;30656;-62
2021/12/17 11:46:35;;;;;;;26.82;10.38;;;;;;;4.98;72.32;99930.77;1714438;83;25438;-63
2021/12/17 11:49:17;;;;;;;11.85;5.45;;;;;;;4.99;72.36;99925.63;1713608;83;25468;-63
2021/12/17 11:51:54;;;;;;;24.63;9.10;;;;;;;5.02;72.15;99925.13;1714319;83;25805;-62
2021/12/17 11:54:26;;;;;;;15.50;6.62;;;;;;;5.12;72.79;99932.63;1714516;83;25614;-61
2021/12/17 11:56:55;;;;;;;13.95;5.17;;;;;;;5.08;71.32;99925.52;1713641;83;27787;-61
2021/12/17 11:59:33;;;;;;;11.43;5.08;;;;;;;5.05;71.67;99934.16;1692087;83;25819;-61
2021/12/17 12:02:23;;;;;;;12.35;5.12;;;;;;;5.06;71.75;99934.98;1714080;83;25570;-62
2021/12/17 12:04:54;;;;;;;8.70;5.28;;;;;;;5.07;71.35;99933.91;1714361;83;25748;-62
2021/12/17 12:07:28;;;;;;;;;;;;;;;5.03;71.14;99929.48;1716920;83;25397;-63
2021/12/17 12:10:19;;;;;;;8.63;4.08;;;;;;;5.02;71.58;99923.77;1714164;83;28642;-62
2021/12/17 12:12:52;;;;;;;11.20;5.00;;;;;;;4.96;70.92;99916.08;1713795;83;25452;-62
2021/12/17 12:15:27;;;;;;;18.40;8.05;;;;;;;4.89;71.10;99916.22;1714450;83;25504;-63
2021/12/17 12:18:18;;;;;;;12.15;5.35;;;;;;;4.86;71.25;99910.44;1714546;83;25767;-61
2021/12/17 12:20:50;;;;;;;13.10;5.93;;;;;;;4.85;70.88;99907.45;1714430;83;25643;-61
2021/12/17 12:23:37;;;;;;;16.87;6.65;;;;;;;4.84;70.75;99912.59;1714347;83;26891;-63
2021/12/17 12:26:12;;;;;;;9.70;4.03;;;;;;;4.90;71.68;99912.98;1714233;83;25634;-63
2021/12/17 12:29:03;;;;;;;7.30;3.87;;;;;;;4.91;71.18;99910.55;1713102;83;25575;-63
2021/12/17 12:31:38;;;;;;;10.03;4.55;;;;;;;4.85;71.13;99913.71;1714239;83;26893;-62
2021/12/17 12:34:15;;;;;;;16.35;6.35;;;;;;;4.76;71.43;99917.36;1714311;83;25699;-62
2021/12/17 12:37:04;;;;;;;7.62;3.62;;;;;;;4.73;71.55;99916.49;1714081;83;56113;-62
2021/12/17 12:39:54;;;;;;;10.35;5.03;;;;;;;4.69;71.23;99919.38;1714029;83;25608;-61
2021/12/17 12:42:27;;;;;;;13.30;5.12;;;;;;;4.64;71.90;99924.73;1714047;83;25710;-61
2021/12/17 12:45:08;;;;;;;16.15;5.70;;;;;;;4.63;72.05;99920.35;1714573;83;26531;-65
2021/12/17 12:47:51;;;;;;;15.60;5.30;;;;;;;4.70;72.29;99915.63;1712976;83;25591;-64
2021/12/17 12:50:24;;;;;;;16.30;6.42;;;;;;;4.77;72.21;99931.75;1714247;83;25834;-63
2021/12/17 12:53:05;;;;;;;18.20;7.87;;;;;;;4.73;71.42;99917.02;1713652;83;25789;-63
2021/12/17 12:55:46;;;;;;;18.27;8.55;;;;;;;4.70;71.22;99914.27;1713611;83;25697;-64
2021/12/17 12:58:21;;;;;;;14.10;6.72;;;;;;;4.73;71.52;99917.02;1714405;83;25735;-63
2021/12/17 13:00:57;;;;;;;14.90;6.87;;;;;;;4.69;70.78;99906.36;1713196;83;25661;-63
2021/12/17 13:03:28;;;;;;;13.30;6.33;;;;;;;4.68;70.73;99908.77;1714212;83;28836;-65
2021/12/17 13:05:59;;;;;;;15.03;6.62;;;;;;;4.61;70.79;99910.29;1714370;83;25728;-62
2021/12/17 13:08:30;;;;;;;13.35;6.28;;;;;;;4.58;70.81;99912.13;1714325;83;25717;-63
2021/12/17 13:10:59;;;;;;;13.45;5.47;;;;;;;4.56;71.24;99911.53;1713994;83;25662;-66
2021/12/17 13:13:34;;;;;;;9.23;3.47;;;;;;;4.51;71.12;99913.09;1714518;83;32797;-62
2021/12/17 13:16:23;;;;;;;10.78;3.77;;;;;;;4.52;70.60;99914.73;1713450;83;26001;-62
2021/12/17 13:24:28;;;;;;;17.48;7.72;;;;;;;4.50;71.13;99907.91;1742775;81;25679;-62
2021/12/17 13:27:00;;;;;;;16.77;6.28;;;;;;;4.49;70.96;99900.28;1735121;82;25711;-63
2021/12/17 13:29:35;;;;;;;23.90;10.45;;;;;;;4.40;70.57;99912.59;1740117;81;27408;-62
2021/12/17 13:32:05;;;;;;;36.77;14.38;;;;;;;4.36;71.19;99912.80;1760571;81;25925;-66
2021/12/17 13:34:45;;;;;;;22.32;9.18;;;;;;;4.34;70.81;99921.70;1761415;81;25680;-64
2021/12/17 13:37:21;;;;;;;21.57;9.55;;;;;;;4.29;71.40;99918.90;1761563;81;25829;-62
2021/12/17 13:39:56;;;;;;;30.27;11.48;;;;;;;4.31;71.76;99918.11;1759960;81;26030;-62
2021/12/17 13:42:33;;;;;;;24.12;11.08;;;;;;;4.32;71.78;99914.34;1758898;81;27628;-62
2021/12/17 13:45:05;;;;;;;16.65;6.80;;;;;;;4.35;71.76;99905.17;1758547;81;25807;-62
2021/12/17 13:47:35;;;;;;;16.75;7.62;;;;;;;4.36;71.65;99910.08;1755991;81;25832;-63
2021/12/17 13:50:28;;;;;;;11.85;4.67;;;;;;;4.33;71.77;99898.34;1758722;81;26645;-66
2021/12/17 13:53:15;;;;;;;12.70;5.20;;;;;;;4.29;71.89;99897.19;1758639;81;25665;-65
2021/12/17 13:55:48;;;;;;;11.43;4.50;;;;;;;4.30;72.32;99907.80;1759012;81;26818;-64
2021/12/17 13:58:21;;;;;;;10.20;5.22;;;;;;;4.27;72.32;99904.22;1746275;81;25764;-63
2021/12/17 14:00:52;;;;;;;16.10;6.60;;;;;;;4.23;72.52;99919.34;1740634;82;25733;-63
2021/12/17 14:03:28;;;;;;;15.18;7.37;;;;;;;4.20;72.76;99921.17;1737141;82;26355;-61
2021/12/17 14:06:10;;;;;;;11.80;5.33;;;;;;;4.20;72.92;99919.27;1736023;82;25705;-63
2021/12/17 14:08:26;;;;;;;10.50;5.20;;;;;;;4.18;72.84;99929.55;1734498;82;25852;-65
2021/12/17 14:10:54;;;;;;;11.63;5.25;;;;;;;4.11;72.63;99924.25;1736729;81;25661;-66
2021/12/17 14:13:29;;;;;;;12.53;6.28;;;;;;;4.09;72.78;99919.58;1737389;82;25797;-67
2021/12/17 14:15:57;;;;;;;12.82;6.70;;;;;;;4.14;72.99;99916.16;1737650;82;25884;-63
2021/12/17 14:18:27;;;;;;;22.45;6.90;;;;;;;4.21;73.01;99917.38;1737582;82;25681;-65
2021/12/17 14:20:58;;;;;;;11.55;5.35;;;;;;;4.24;73.09;99916.91;1737888;82;27480;-64
2021/12/17 14:23:28;;;;;;;12.78;5.55;;;;;;;4.26;72.96;99910.72;1737642;82;25416;-62
2021/12/17 14:26:07;;;;;;;11.03;4.47;;;;;;;4.25;73.02;99922.61;1738063;82;25610;-62
2021/12/17 14:28:38;;;;;;;11.33;4.40;;;;;;;4.23;73.12;99929.64;1738253;82;25770;-63
2021/12/17 14:31:14;;;;;;;14.40;6.70;;;;;;;4.19;72.94;99931.19;1737943;82;25633;-64
2021/12/17 14:33:52;;;;;;;15.55;6.70;;;;;;;4.19;73.44;99933.91;1737105;82;26916;-62
2021/12/17 14:36:41;;;;;;;15.28;5.95;;;;;;;4.19;73.44;99927.64;1737802;82;25601;-62
2021/12/17 14:39:15;;;;;;;10.93;6.28;;;;;;;4.12;73.38;99929.95;1721283;81;25614;-63
2021/12/17 14:42:00;;;;;;;15.50;6.00;;;;;;;4.05;73.63;99929.27;1756643;81;25427;-63